Time;durP1;ratioP1;P1;durP2;ratioP2;P2;SDS_P1;SDS_P2;PMS_P1;PMS_P2;Temp;Humidity;BMP_temperature;BMP_pressure;BME280_temperature;BME280_humidity;BME280_pressure;Samples;Min_cycle;Max_cycle;Signal;HPM_P1;HPM_P2
2023/07/20 00:01:23;;;;;;;13.88;7.30;;;;;;;26.02;51.20;98899.38;5032329;28;20021;-75
2023/07/20 00:03:54;;;;;;;18.83;7.60;;;;;;;26.07;50.62;98891.03;5032399;28;20032;-75
2023/07/20 00:06:20;;;;;;;13.15;7.15;;;;;;;26.26;50.49;98885.59;5032289;28;20375;-75
2023/07/20 00:08:46;;;;;;;16.35;7.05;;;;;;;26.47;49.69;98886.97;5031352;28;20103;-75
2023/07/20 00:11:13;;;;;;;8.38;6.72;;;;;;;26.70;49.11;98885.00;5032061;28;20029;-75
2023/07/20 00:13:39;;;;;;;11.15;6.32;;;;;;;27.14;48.36;98877.81;5032206;28;20036;-75
2023/07/20 00:16:04;;;;;;;10.43;6.90;;;;;;;27.29;47.79;98870.31;5050705;28;20416;-75
2023/07/20 00:18:30;;;;;;;14.85;7.15;;;;;;;27.60;46.89;98854.47;5052009;28;20088;-75
2023/07/20 00:20:55;;;;;;;17.48;7.28;;;;;;;27.75;46.03;98864.13;5051915;28;20527;-75
2023/07/20 00:23:22;;;;;;;15.85;6.90;;;;;;;27.85;45.59;98875.69;5051861;28;20420;-75
2023/07/20 00:25:51;;;;;;;15.02;6.00;;;;;;;28.08;45.40;98871.50;5033486;28;20037;-75
2023/07/20 00:28:16;;;;;;;17.30;7.60;;;;;;;27.94;44.92;98849.91;5031856;28;20031;-75
2023/07/20 00:30:42;;;;;;;9.32;6.10;;;;;;;28.03;44.93;98852.00;5031799;28;20026;-75
2023/07/20 00:33:11;;;;;;;11.65;5.90;;;;;;;28.08;43.61;98842.75;5031798;28;20032;-75
2023/07/20 00:35:37;;;;;;;16.05;6.70;;;;;;;28.24;43.57;98821.63;5031359;28;20041;-75
2023/07/20 00:38:03;;;;;;;14.90;6.30;;;;;;;28.37;42.95;98826.47;5030489;28;20029;-75
2023/07/20 00:40:35;;;;;;;10.60;5.88;;;;;;;28.34;42.93;98827.41;5031198;28;20055;-76
2023/07/20 00:43:00;;;;;;;20.20;6.07;;;;;;;28.09;43.76;98855.06;5030956;28;20029;-75
2023/07/20 00:45:26;;;;;;;11.48;5.03;;;;;;;28.12;43.42;98831.94;5031189;28;20049;-75
2023/07/20 00:47:51;;;;;;;14.77;5.82;;;;;;;28.19;42.82;98819.38;5031559;28;20404;-75
2023/07/20 00:50:17;;;;;;;15.27;5.45;;;;;;;28.03;43.07;98821.19;5031603;28;20033;-75
2023/07/20 00:52:43;;;;;;;18.40;5.13;;;;;;;27.55;44.44;98821.41;5031556;28;20536;-75
2023/07/20 00:55:09;;;;;;;10.52;4.90;;;;;;;27.43;44.35;98819.38;5031140;28;20109;-75
2023/07/20 00:57:34;;;;;;;9.95;5.43;;;;;;;27.52;44.36;98819.44;5031398;28;20033;-75
2023/07/20 01:00:00;;;;;;;11.90;5.10;;;;;;;27.50;44.32;98832.66;5039986;28;20032;-75
2023/07/20 01:02:26;;;;;;;17.73;5.60;;;;;;;27.54;44.23;98828.41;5040202;28;20489;-75
2023/07/20 01:04:52;;;;;;;13.25;5.28;;;;;;;27.78;43.77;98825.06;5031418;28;20476;-75
2023/07/20 01:07:28;;;;;;;19.38;5.72;;;;;;;27.90;43.27;98809.00;5031297;28;20032;-75
2023/07/20 01:09:59;;;;;;;10.07;5.05;;;;;;;28.16;42.99;98809.59;5045719;28;20064;-75
2023/07/20 01:12:47;;;;;;;11.63;5.00;;;;;;;28.22;42.48;98803.25;5049356;28;20040;-75
2023/07/20 01:15:13;;;;;;;12.70;5.78;;;;;;;28.33;42.17;98791.31;5048082;28;20503;-76
2023/07/20 01:17:39;;;;;;;9.43;4.25;;;;;;;28.47;41.66;98804.28;5049581;28;20032;-76
2023/07/20 01:20:10;;;;;;;21.77;5.22;;;;;;;28.45;42.42;98802.69;5031612;28;20025;-76
2023/07/20 01:23:00;;;;;;;24.05;6.18;;;;;;;28.52;41.90;98795.81;5031099;28;20036;-76
2023/07/20 01:25:26;;;;;;;14.27;5.20;;;;;;;28.67;41.94;98798.91;5042503;28;20037;-76
2023/07/20 01:28:09;;;;;;;19.80;5.70;;;;;;;28.21;42.90;98790.97;5050843;28;20051;-75
2023/07/20 01:31:10;;;;;;;16.70;4.68;;;;;;;28.11;43.43;98790.09;5051025;28;20415;-75
2023/07/20 01:33:37;;;;;;;10.30;5.22;;;;;;;28.03;43.52;98783.03;5042676;28;20060;-75
2023/07/20 01:36:03;;;;;;;8.25;4.00;;;;;;;28.19;43.12;98781.22;5031064;28;20030;-75
2023/07/20 01:38:29;;;;;;;9.93;4.93;;;;;;;28.47;42.77;98787.03;5038010;28;20029;-75
2023/07/20 01:40:55;;;;;;;10.13;5.18;;;;;;;28.54;42.74;98787.56;5050946;28;20510;-75
2023/07/20 01:43:21;;;;;;;13.20;5.32;;;;;;;28.51;42.39;98784.81;5050764;28;20118;-75
2023/07/20 01:45:47;;;;;;;14.70;5.20;;;;;;;28.44;42.53;98769.47;5030392;28;20084;-75
2023/07/20 01:48:13;;;;;;;7.28;4.75;;;;;;;28.30;42.66;98773.75;5050069;28;20116;-75
2023/07/20 01:50:38;;;;;;;12.38;5.43;;;;;;;28.34;42.42;98779.34;5044460;28;20488;-76
2023/07/20 01:53:04;;;;;;;16.45;5.63;;;;;;;28.35;42.36;98789.56;5043344;28;20029;-76
2023/07/20 01:55:29;;;;;;;11.55;4.70;;;;;;;28.22;42.42;98780.25;5041260;28;20021;-76
2023/07/20 01:57:55;;;;;;;15.23;4.97;;;;;;;27.98;42.81;98780.75;5033716;28;20036;-76
2023/07/20 02:00:23;;;;;;;8.75;4.97;;;;;;;28.07;42.43;98777.94;5035083;28;20113;-75
2023/07/20 02:02:49;;;;;;;9.75;5.50;;;;;;;27.80;42.90;98782.28;5034607;28;20033;-75
2023/07/20 02:05:15;;;;;;;10.45;4.60;;;;;;;27.58;43.68;98785.22;5034594;28;20021;-75
2023/07/20 02:07:40;;;;;;;11.25;5.40;;;;;;;27.54;43.85;98782.47;5046971;28;20028;-75
2023/07/20 02:10:06;;;;;;;11.52;5.47;;;;;;;27.48;43.94;98790.03;5054504;28;20036;-75
2023/07/20 02:12:32;;;;;;;10.50;5.65;;;;;;;27.53;43.41;98783.75;5054235;28;20029;-75
2023/07/20 02:14:57;;;;;;;15.63;6.20;;;;;;;27.70;43.02;98789.25;5054284;28;20032;-75
2023/07/20 02:17:23;;;;;;;12.00;5.55;;;;;;;27.67;43.26;98778.72;5042026;28;20068;-75
2023/07/20 02:19:52;;;;;;;11.55;5.15;;;;;;;27.85;43.04;98789.50;5034276;28;20079;-76
2023/07/20 02:22:17;;;;;;;9.15;4.80;;;;;;;28.01;42.28;98791.34;5033783;28;20065;-75
2023/07/20 02:24:43;;;;;;;12.02;5.45;;;;;;;28.00;42.14;98787.66;5034140;28;20065;-75
2023/07/20 02:27:08;;;;;;;13.98;4.75;;;;;;;27.89;42.06;98795.91;5034259;28;20047;-76
2023/07/20 02:29:34;;;;;;;19.75;5.45;;;;;;;27.94;42.01;98788.75;5035749;28;20026;-76
2023/07/20 02:31:59;;;;;;;11.30;6.13;;;;;;;28.01;41.92;98783.50;5047081;28;20029;-76
2023/07/20 02:34:25;;;;;;;8.23;4.85;;;;;;;28.07;41.72;98789.44;5033974;28;20036;-76
2023/07/20 02:36:50;;;;;;;10.18;4.82;;;;;;;27.95;41.84;98781.72;5042901;28;20029;-76
2023/07/20 02:39:16;;;;;;;24.25;5.68;;;;;;;27.81;42.28;98786.75;5053920;28;20511;-76
2023/07/20 02:41:41;;;;;;;19.42;6.13;;;;;;;27.58;42.65;98780.25;5053957;28;20021;-76
2023/07/20 02:44:07;;;;;;;16.25;6.05;;;;;;;26.94;44.23;98792.84;5053702;28;20082;-76
2023/07/20 02:46:32;;;;;;;9.50;5.32;;;;;;;26.31;45.95;98798.25;5045550;28;20049;-76
2023/07/20 02:48:58;;;;;;;17.23;6.20;;;;;;;26.51;45.76;98789.38;5033716;28;20025;-75
2023/07/20 02:51:23;;;;;;;14.25;6.22;;;;;;;26.99;45.04;98794.31;5033267;28;20033;-75
2023/07/20 02:53:49;;;;;;;9.32;5.63;;;;;;;27.15;44.92;98791.25;5033669;28;20083;-75
2023/07/20 02:56:15;;;;;;;18.08;6.25;;;;;;;27.25;44.96;98799.94;5033594;28;20029;-76
2023/07/20 03:02:09;;;;;;;38.78;8.68;;;;;;;27.37;44.72;98792.53;5410602;22;20146;-92
2023/07/20 03:04:36;;;;;;;18.65;6.93;;;;;;;27.31;45.41;98798.06;5012733;28;20026;-92
2023/07/20 03:07:04;;;;;;;26.50;7.13;;;;;;;27.21;45.55;98788.59;5010714;28;20500;-92
2023/07/20 03:09:29;;;;;;;25.75;7.72;;;;;;;27.30;45.04;98797.28;5010538;28;20022;-91
2023/07/20 03:11:55;;;;;;;22.95;7.32;;;;;;;27.30;44.93;98787.84;4995658;28;20607;-91
2023/07/20 03:14:20;;;;;;;17.48;7.00;;;;;;;27.38;44.84;98785.50;4994082;28;20026;-92
2023/07/20 03:16:46;;;;;;;16.83;6.10;;;;;;;27.35;45.33;98797.94;5010483;28;20220;-91
2023/07/20 03:19:11;;;;;;;69.95;10.85;;;;;;;27.22;45.21;98778.72;5011097;28;20559;-91
2023/07/20 03:21:40;;;;;;;47.97;9.30;;;;;;;27.35;45.40;98781.53;5013572;28;20030;-92
2023/07/20 03:24:09;;;;;;;45.85;8.73;;;;;;;27.19;45.55;98771.03;5030023;28;20029;-92
2023/07/20 03:26:35;;;;;;;31.15;9.95;;;;;;;26.88;46.30;98778.28;5005959;28;20053;-91
2023/07/20 03:29:01;;;;;;;35.47;11.40;;;;;;;26.41;46.55;98771.25;5014854;28;20056;-92
2023/07/20 03:31:26;;;;;;;46.90;9.18;;;;;;;26.30;46.64;98762.22;4993876;28;20098;-92
2023/07/20 03:33:52;;;;;;;22.98;7.03;;;;;;;25.92;47.58;98772.44;4993553;28;20034;-92
2023/07/20 03:36:17;;;;;;;17.52;6.93;;;;;;;25.77;47.74;98755.69;4994720;28;20026;-91
2023/07/20 03:38:43;;;;;;;32.55;8.15;;;;;;;26.00;47.65;98773.00;4993638;28;20435;-92
2023/07/20 03:41:09;;;;;;;33.28;9.13;;;;;;;26.41;47.54;98765.53;4993522;28;20477;-92
2023/07/20 03:43:34;;;;;;;34.25;8.48;;;;;;;26.53;48.81;98765.97;4993332;28;20030;-91
2023/07/20 03:46:00;;;;;;;37.58;7.63;;;;;;;26.69;48.32;98771.56;4993656;28;20026;-92
2023/07/20 03:48:26;;;;;;;25.73;7.63;;;;;;;26.00;49.26;98755.81;4993259;28;20035;-92
2023/07/20 03:50:53;;;;;;;41.78;8.70;;;;;;;26.40;48.69;98766.00;5009923;28;20150;-91
2023/07/20 03:53:19;;;;;;;34.45;7.63;;;;;;;26.21;49.51;98760.06;5009622;28;20022;-91
2023/07/20 03:55:46;;;;;;;29.55;7.65;;;;;;;25.76;49.76;98756.97;5009626;28;20030;-91
2023/07/20 03:58:12;;;;;;;23.83;7.03;;;;;;;25.84;48.90;98757.53;5009660;28;20030;-91
2023/07/20 04:00:38;;;;;;;27.55;7.22;;;;;;;25.73;49.64;98771.38;5009558;28;20031;-90
2023/07/20 04:03:03;;;;;;;22.05;6.07;;;;;;;25.73;48.91;98759.94;5009376;28;20061;-91
2023/07/20 04:05:29;;;;;;;12.48;6.85;;;;;;;25.79;48.51;98770.34;5009219;28;20113;-91
2023/07/20 04:07:54;;;;;;;14.27;6.95;;;;;;;26.07;48.19;98778.50;5009276;28;20420;-91
2023/07/20 04:10:20;;;;;;;11.85;6.53;;;;;;;26.00;48.13;98773.78;5009084;28;20026;-91
2023/07/20 04:12:47;;;;;;;16.30;6.82;;;;;;;26.05;47.87;98766.69;4992759;28;20030;-91
2023/07/20 04:15:13;;;;;;;24.63;7.43;;;;;;;26.07;47.43;98770.69;5001688;28;20456;-91
2023/07/20 04:17:39;;;;;;;14.02;7.43;;;;;;;26.17;47.54;98782.28;5013378;28;20057;-92
2023/07/20 04:20:06;;;;;;;16.88;6.97;;;;;;;26.35;47.51;98782.50;5012297;28;20496;-91
2023/07/20 04:22:31;;;;;;;32.65;8.07;;;;;;;26.61;46.80;98793.94;5012366;28;20030;-90
2023/07/20 04:24:57;;;;;;;13.93;7.68;;;;;;;26.79;46.68;98789.63;5013300;28;20040;-91
2023/07/20 04:27:22;;;;;;;18.67;7.28;;;;;;;26.76;46.90;98793.44;5006483;28;20076;-90
2023/07/20 04:29:48;;;;;;;25.15;7.70;;;;;;;26.53;47.21;98780.28;5008910;28;20023;-91
2023/07/20 04:32:13;;;;;;;17.27;6.55;;;;;;;26.83;46.29;98798.91;4993751;28;20030;-90
2023/07/20 04:34:39;;;;;;;17.17;8.35;;;;;;;26.77;45.81;98781.50;4992411;28;20038;-91
2023/07/20 04:37:04;;;;;;;14.10;7.90;;;;;;;27.00;45.42;98779.50;5008842;28;20037;-91
2023/07/20 04:39:30;;;;;;;11.43;6.75;;;;;;;26.84;46.16;98789.03;5008692;28;20493;-91
2023/07/20 04:41:56;;;;;;;40.42;9.30;;;;;;;26.72;47.24;98796.44;4992498;28;20030;-91
2023/07/20 04:44:21;;;;;;;19.90;6.90;;;;;;;26.75;47.06;98795.50;4993628;28;20034;-91
2023/07/20 04:46:47;;;;;;;9.90;5.82;;;;;;;26.78;47.41;98797.44;5008656;28;20037;-91
2023/07/20 04:49:13;;;;;;;11.88;5.70;;;;;;;26.61;47.67;98799.69;5008540;28;20112;-91
2023/07/20 04:51:39;;;;;;;16.75;5.68;;;;;;;26.65;47.79;98798.75;4993730;28;20053;-91
2023/07/20 04:54:04;;;;;;;23.48;7.45;;;;;;;26.47;49.24;98791.53;5008515;28;20581;-91
2023/07/20 04:56:30;;;;;;;14.50;5.70;;;;;;;26.75;49.51;98798.38;5008545;28;20030;-91
2023/07/20 04:58:55;;;;;;;28.75;8.00;;;;;;;26.94;49.08;98798.56;5008891;28;20018;-90
2023/07/20 05:01:21;;;;;;;66.32;10.20;;;;;;;26.96;49.93;98796.03;5009369;28;20037;-91
2023/07/20 05:03:46;;;;;;;55.03;9.48;;;;;;;26.99;48.98;98792.25;5009355;28;20084;-92
2023/07/20 05:06:12;;;;;;;14.07;7.68;;;;;;;27.17;48.43;98788.72;5009945;28;20034;-91
2023/07/20 05:08:38;;;;;;;14.75;6.30;;;;;;;27.10;49.40;98799.66;4994208;28;20516;-91
2023/07/20 05:11:04;;;;;;;19.52;7.05;;;;;;;26.83;50.48;98789.53;5023063;28;20026;-91
2023/07/20 05:13:30;;;;;;;11.63;5.50;;;;;;;27.25;49.95;98811.44;5017993;28;20120;-92
2023/07/20 05:15:55;;;;;;;12.25;6.30;;;;;;;27.26;47.91;98793.72;5023056;28;20088;-92
2023/07/20 05:18:21;;;;;;;25.65;5.72;;;;;;;27.59;48.53;98784.72;5021734;28;20018;-91
2023/07/20 05:20:47;;;;;;;12.57;4.72;;;;;;;27.81;47.16;98795.38;5020916;28;20396;-91
2023/07/20 05:23:13;;;;;;;18.85;5.03;;;;;;;27.86;47.29;98794.75;5019875;28;20481;-91
2023/07/20 05:25:41;;;;;;;18.35;7.38;;;;;;;28.10;47.23;98788.47;5020102;28;20033;-92
2023/07/20 05:28:07;;;;;;;13.88;5.10;;;;;;;27.85;47.85;98781.66;5020761;28;20025;-93
2023/07/20 05:30:32;;;;;;;15.30;4.90;;;;;;;28.14;46.99;98779.72;5023101;28;20079;-92
2023/07/20 05:32:58;;;;;;;17.88;5.63;;;;;;;28.01;46.87;98782.72;5020469;28;20472;-91
2023/07/20 05:35:23;;;;;;;16.85;5.70;;;;;;;28.02;47.24;98781.44;5020159;28;20025;-90
2023/07/20 05:37:49;;;;;;;23.90;6.63;;;;;;;28.20;47.20;98777.06;5019313;28;20053;-93
2023/07/20 05:40:18;;;;;;;18.02;5.38;;;;;;;28.54;46.80;98790.44;5018598;28;20018;-91
2023/07/20 05:42:44;;;;;;;16.20;5.90;;;;;;;28.36;45.99;98776.00;5017957;28;20026;-91
2023/07/20 05:45:10;;;;;;;16.75;6.22;;;;;;;28.52;45.53;98766.28;5015391;28;20041;-92
2023/07/20 05:47:35;;;;;;;16.48;6.45;;;;;;;28.74;45.07;98760.41;5004462;28;20030;-89
2023/07/20 05:50:01;;;;;;;12.20;5.20;;;;;;;28.77;44.59;98773.03;4995471;28;20031;-90
2023/07/20 05:52:26;;;;;;;12.27;6.13;;;;;;;28.61;44.23;98746.19;4999329;28;20037;-90
2023/07/20 05:54:52;;;;;;;14.23;7.28;;;;;;;29.05;42.68;98762.38;4995802;28;20018;-90
2023/07/20 05:57:17;;;;;;;14.05;6.78;;;;;;;29.47;42.90;98769.53;4995514;28;20037;-90
2023/07/20 05:59:44;;;;;;;17.27;6.47;;;;;;;29.44;42.14;98770.50;5009318;28;20113;-90
2023/07/20 06:02:11;;;;;;;11.07;6.43;;;;;;;29.75;41.94;98769.47;5031148;28;20065;-90
2023/07/20 06:04:36;;;;;;;12.38;6.40;;;;;;;29.75;40.62;98766.59;5031232;28;20025;-90
2023/07/20 06:07:02;;;;;;;18.48;7.25;;;;;;;30.06;40.65;98765.53;4998577;28;20029;-90
2023/07/20 06:09:29;;;;;;;9.75;6.32;;;;;;;30.43;40.31;98772.41;5004664;28;20021;-91
2023/07/20 06:11:54;;;;;;;19.95;7.53;;;;;;;30.45;39.65;98758.28;5014259;28;20084;-90
2023/07/20 06:14:20;;;;;;;27.35;9.02;;;;;;;30.27;39.25;98742.66;5014711;28;20488;-90
2023/07/20 06:16:45;;;;;;;27.63;11.45;;;;;;;30.47;40.14;98761.47;5014629;28;20018;-91
2023/07/20 06:19:11;;;;;;;15.57;7.65;;;;;;;30.74;39.64;98756.81;5014630;28;20049;-90
2023/07/20 06:21:37;;;;;;;18.05;5.95;;;;;;;30.73;38.61;98761.00;5014560;28;20083;-90
2023/07/20 06:24:03;;;;;;;13.52;6.72;;;;;;;30.90;39.36;98759.28;5014218;28;20057;-90
2023/07/20 06:26:29;;;;;;;14.65;6.32;;;;;;;30.88;39.21;98744.53;5014359;28;20032;-89
2023/07/20 06:28:56;;;;;;;10.88;7.15;;;;;;;31.08;37.96;98760.41;5014026;28;20034;-90
2023/07/20 06:31:21;;;;;;;19.17;7.43;;;;;;;31.00;37.93;98734.00;5014417;28;20404;-88
2023/07/20 06:33:47;;;;;;;20.05;6.72;;;;;;;31.15;37.69;98727.47;5014093;28;20029;-90
2023/07/20 06:36:12;;;;;;;13.85;7.45;;;;;;;31.16;37.75;98729.84;5014195;28;20594;-90
2023/07/20 06:38:38;;;;;;;19.27;9.15;;;;;;;31.36;36.76;98742.84;5013953;28;20025;-90
2023/07/20 06:41:03;;;;;;;24.73;9.80;;;;;;;31.29;37.42;98741.13;5011656;28;20125;-90
2023/07/20 06:43:29;;;;;;;12.38;6.63;;;;;;;31.14;37.78;98746.06;4994903;28;20040;-91
2023/07/20 06:45:54;;;;;;;14.82;7.18;;;;;;;30.61;39.07;98754.19;4994857;28;20125;-91
2023/07/20 06:48:21;;;;;;;13.10;7.20;;;;;;;30.80;38.59;98747.00;4994440;28;20069;-90
2023/07/20 06:50:46;;;;;;;11.63;6.95;;;;;;;30.46;38.10;98736.81;5010880;28;20088;-91
2023/07/20 06:53:12;;;;;;;20.65;9.18;;;;;;;30.39;39.38;98744.53;5010888;28;20022;-90
2023/07/20 06:55:37;;;;;;;14.30;6.53;;;;;;;30.56;37.66;98726.81;5010624;28;20544;-90
2023/07/20 06:58:03;;;;;;;16.15;6.50;;;;;;;30.90;37.69;98736.19;5010570;28;20034;-91
2023/07/20 07:00:30;;;;;;;11.07;7.18;;;;;;;30.88;38.45;98743.75;4996366;28;20023;-91
2023/07/20 07:02:55;;;;;;;9.88;5.93;;;;;;;31.23;37.17;98732.38;5029907;28;20046;-91
2023/07/20 07:05:21;;;;;;;16.58;7.05;;;;;;;31.20;36.91;98741.22;5013803;28;20018;-91
2023/07/20 07:07:46;;;;;;;13.40;6.90;;;;;;;31.43;36.24;98739.56;5030868;28;20029;-91
2023/07/20 07:10:12;;;;;;;14.20;6.40;;;;;;;31.76;36.01;98732.78;5013894;28;20477;-91
2023/07/20 07:12:37;;;;;;;15.93;6.90;;;;;;;32.02;36.59;98734.22;5013706;28;20022;-91
2023/07/20 07:15:06;;;;;;;8.30;6.05;;;;;;;31.99;36.49;98738.94;5030223;28;20018;-92
2023/07/20 07:17:32;;;;;;;14.35;6.13;;;;;;;32.35;35.22;98738.97;5030105;28;20462;-91
2023/07/20 07:19:58;;;;;;;13.35;6.93;;;;;;;32.40;36.73;98723.00;5030249;28;20018;-90
2023/07/20 07:22:23;;;;;;;20.58;6.70;;;;;;;32.58;34.93;98737.19;5013352;28;20049;-91
2023/07/20 07:24:49;;;;;;;20.55;7.32;;;;;;;32.63;34.74;98724.06;5013369;28;20084;-90
2023/07/20 07:27:16;;;;;;;12.27;7.57;;;;;;;32.84;34.48;98729.84;5029888;28;20389;-91
2023/07/20 07:29:44;;;;;;;17.52;6.82;;;;;;;32.98;33.82;98736.91;5029681;28;20084;-91
2023/07/20 07:32:10;;;;;;;7.95;6.47;;;;;;;32.72;34.08;98732.59;5029880;28;20030;-90
2023/07/20 07:34:36;;;;;;;12.80;8.20;;;;;;;32.76;34.02;98720.81;5029600;28;20034;-90
2023/07/20 07:37:03;;;;;;;9.70;6.32;;;;;;;33.24;33.91;98736.13;5013000;28;20057;-90
2023/07/20 07:39:30;;;;;;;12.45;6.22;;;;;;;33.44;33.39;98726.56;5013065;28;20025;-91
2023/07/20 07:41:56;;;;;;;16.30;7.45;;;;;;;33.59;33.70;98730.16;5029582;28;20030;-90
2023/07/20 07:44:21;;;;;;;14.32;6.68;;;;;;;33.75;33.46;98737.41;5029417;28;20026;-90
2023/07/20 07:46:47;;;;;;;10.15;7.40;;;;;;;33.64;32.75;98740.22;5029345;28;20550;-90
2023/07/20 07:49:12;;;;;;;14.02;9.10;;;;;;;33.47;34.04;98743.75;5012951;28;20117;-90
2023/07/20 07:51:38;;;;;;;13.25;7.05;;;;;;;33.45;34.27;98734.78;5028774;28;20049;-91
2023/07/20 07:54:04;;;;;;;11.20;7.20;;;;;;;33.56;34.22;98730.41;5012777;28;20091;-90
2023/07/20 07:56:29;;;;;;;15.32;6.82;;;;;;;33.79;32.42;98718.97;5012807;28;20022;-91
2023/07/20 07:58:55;;;;;;;22.30;7.88;;;;;;;33.96;32.32;98724.91;5012885;28;20026;-90
2023/07/20 08:01:20;;;;;;;15.00;7.25;;;;;;;34.23;32.33;98731.47;5029055;28;20026;-90
2023/07/20 08:03:47;;;;;;;12.50;7.80;;;;;;;34.47;31.84;98725.25;5012457;28;20100;-90
2023/07/20 08:06:15;;;;;;;10.50;7.18;;;;;;;34.26;31.22;98724.59;5028985;28;20018;-91
2023/07/20 08:08:42;;;;;;;17.70;7.43;;;;;;;34.42;31.88;98735.50;5029011;28;20079;-90
2023/07/20 08:11:07;;;;;;;12.07;6.30;;;;;;;34.45;32.57;98727.88;5012617;28;20026;-89
2023/07/20 08:13:33;;;;;;;13.45;7.18;;;;;;;34.60;32.25;98727.72;5028892;28;20030;-91
2023/07/20 08:15:58;;;;;;;7.18;6.22;;;;;;;34.40;32.51;98723.63;5028918;28;20021;-90
2023/07/20 08:18:24;;;;;;;8.85;5.97;;;;;;;34.46;32.42;98729.47;5028679;28;20433;-90
2023/07/20 08:20:50;;;;;;;14.80;6.95;;;;;;;34.75;32.30;98738.34;5028765;28;20115;-90
2023/07/20 08:23:15;;;;;;;18.75;9.93;;;;;;;34.88;32.20;98746.56;5028756;28;20037;-90
2023/07/20 08:25:43;;;;;;;22.13;9.43;;;;;;;34.81;30.81;98722.53;5028639;28;20026;-90
2023/07/20 08:28:16;;;;;;;20.02;8.65;;;;;;;35.28;31.04;98735.88;5011884;28;20485;-90
2023/07/20 08:30:43;;;;;;;33.70;12.63;;;;;;;35.45;30.50;98744.63;5028478;28;20029;-90
2023/07/20 08:33:19;;;;;;;14.75;7.95;;;;;;;35.18;30.74;98749.06;5011955;28;20028;-89
2023/07/20 08:35:45;;;;;;;16.15;7.03;;;;;;;35.50;30.95;98743.81;5028345;28;20033;-90
2023/07/20 08:38:10;;;;;;;13.85;6.80;;;;;;;35.65;30.34;98746.53;5028425;28;20029;-90
2023/07/20 08:40:41;;;;;;;17.85;6.53;;;;;;;35.73;30.31;98743.09;5028405;28;20558;-89
2023/07/20 08:43:07;;;;;;;19.42;6.50;;;;;;;35.76;30.36;98722.44;5028265;28;20109;-90
2023/07/20 08:45:33;;;;;;;10.20;6.45;;;;;;;35.79;30.67;98715.59;5028347;28;20109;-89
2023/07/20 08:48:00;;;;;;;12.20;6.47;;;;;;;35.59;30.93;98730.41;5013018;28;20092;-90
2023/07/20 08:50:30;;;;;;;15.07;6.72;;;;;;;35.31;30.71;98728.22;5011850;28;20491;-89
2023/07/20 08:52:57;;;;;;;16.88;6.72;;;;;;;35.17;30.83;98716.28;5028204;28;20048;-89
2023/07/20 08:55:23;;;;;;;8.80;6.38;;;;;;;35.06;31.23;98707.59;5028435;28;20036;-92
2023/07/20 08:57:52;;;;;;;9.73;6.50;;;;;;;35.16;31.60;98723.44;5028266;28;20043;-91
2023/07/20 09:00:20;;;;;;;8.55;6.35;;;;;;;35.12;31.67;98708.38;5028354;28;20022;-91
2023/07/20 09:02:47;;;;;;;10.43;6.22;;;;;;;35.45;31.47;98711.84;5027304;28;20046;-91
2023/07/20 09:05:14;;;;;;;19.10;6.53;;;;;;;35.57;30.41;98701.84;5028582;28;20084;-91
2023/07/20 09:07:42;;;;;;;15.10;6.85;;;;;;;35.79;31.08;98706.06;5028258;28;20099;-91
2023/07/20 09:10:08;;;;;;;9.90;6.60;;;;;;;35.97;30.06;98707.63;5009731;28;20392;-91
2023/07/20 09:12:42;;;;;;;24.52;6.60;;;;;;;36.23;29.30;98701.53;5010962;28;20021;-92
2023/07/20 09:15:09;;;;;;;20.48;7.22;;;;;;;36.16;28.85;98690.44;5011363;28;20522;-92
2023/07/20 09:17:34;;;;;;;11.20;6.85;;;;;;;36.11;28.79;98682.53;5011091;28;20132;-92
2023/07/20 09:20:07;;;;;;;13.27;6.65;;;;;;;36.01;28.75;98678.28;5011426;28;20115;-92
2023/07/20 09:22:34;;;;;;;16.52;7.75;;;;;;;36.22;29.79;98670.84;5012089;28;20029;-92
2023/07/20 09:25:00;;;;;;;10.23;6.70;;;;;;;36.41;29.00;98678.97;5011277;28;20029;-91
2023/07/20 09:27:36;;;;;;;12.80;7.00;;;;;;;36.64;28.72;98678.91;5009394;28;20124;-90
2023/07/20 09:30:02;;;;;;;21.40;7.35;;;;;;;36.86;28.48;98678.00;5011975;28;20026;-90
2023/07/20 09:32:27;;;;;;;15.98;6.63;;;;;;;36.72;28.56;98671.19;5012004;28;20033;-90
2023/07/20 09:34:53;;;;;;;14.63;7.30;;;;;;;36.74;27.64;98656.91;5010669;28;20066;-90
2023/07/20 09:37:26;;;;;;;20.55;6.28;;;;;;;36.82;28.39;98665.84;5010646;28;20034;-90
2023/07/20 09:39:53;;;;;;;7.22;5.53;;;;;;;36.81;27.28;98659.25;5011268;28;20025;-90
2023/07/20 09:42:19;;;;;;;10.15;6.55;;;;;;;36.88;28.75;98654.97;5010656;28;20030;-90
2023/07/20 09:44:44;;;;;;;7.55;4.88;;;;;;;36.92;26.93;98651.75;5010859;28;20103;-90
2023/07/20 09:47:10;;;;;;;15.05;5.90;;;;;;;37.24;27.42;98651.28;5011688;28;20029;-92
2023/07/20 09:49:42;;;;;;;11.95;7.20;;;;;;;37.11;27.65;98643.19;5010814;28;20117;-91
2023/07/20 09:52:09;;;;;;;18.88;12.23;;;;;;;37.23;27.70;98652.63;5010576;28;20022;-91
2023/07/20 09:54:37;;;;;;;12.68;7.90;;;;;;;37.01;27.92;98657.25;5010646;28;20037;-91
2023/07/20 09:57:03;;;;;;;12.85;7.97;;;;;;;37.30;26.63;98645.44;5010909;28;20857;-91
2023/07/20 09:59:29;;;;;;;21.05;7.70;;;;;;;37.25;26.84;98644.13;5027014;28;20029;-91
2023/07/20 10:01:59;;;;;;;18.35;6.80;;;;;;;37.52;26.93;98641.53;5012555;28;20046;-91
2023/07/20 10:04:26;;;;;;;11.50;6.70;;;;;;;37.43;25.93;98644.81;5026827;28;20120;-92
2023/07/20 10:06:56;;;;;;;16.92;6.68;;;;;;;37.26;26.73;98634.06;5010816;28;20473;-92
2023/07/20 10:09:24;;;;;;;8.77;5.63;;;;;;;37.14;26.63;98636.28;5010365;28;20076;-91
2023/07/20 10:11:53;;;;;;;9.43;5.60;;;;;;;37.29;26.15;98620.53;5001659;28;20033;-91
2023/07/20 10:14:20;;;;;;;16.33;6.85;;;;;;;37.45;26.29;98618.81;5015163;28;20022;-92
2023/07/20 10:16:58;;;;;;;9.00;6.25;;;;;;;37.62;26.65;98613.63;5014357;28;20120;-92
2023/07/20 10:19:33;;;;;;;19.30;6.80;;;;;;;37.77;26.60;98615.31;5010732;28;20018;-91
2023/07/20 10:22:13;;;;;;;8.00;5.80;;;;;;;37.97;25.54;98613.25;4994584;28;20560;-91
2023/07/20 10:24:41;;;;;;;12.88;6.03;;;;;;;36.25;26.24;98599.13;5011002;28;20030;-91
2023/07/20 10:27:07;;;;;;;12.07;6.45;;;;;;;37.22;25.77;98592.75;5010998;28;20075;-91
2023/07/20 10:29:33;;;;;;;9.50;5.85;;;;;;;37.24;25.25;98610.50;4992769;28;20034;-92
2023/07/20 10:32:00;;;;;;;13.05;6.72;;;;;;;37.75;25.30;98612.16;5011089;28;20567;-92
2023/07/20 10:34:26;;;;;;;10.05;5.78;;;;;;;38.19;24.95;98606.41;5006787;28;20030;-91
2023/07/20 10:36:52;;;;;;;16.42;6.15;;;;;;;38.36;24.03;98596.66;5022199;28;20121;-91
2023/07/20 10:39:47;;;;;;;11.93;6.38;;;;;;;38.57;23.47;98597.72;5014473;28;20112;-91
2023/07/20 10:42:12;;;;;;;20.05;6.40;;;;;;;38.67;24.21;98603.94;5001594;28;20057;-91
2023/07/20 10:44:39;;;;;;;10.05;5.43;;;;;;;38.99;24.85;98579.06;5030662;28;20113;-91
2023/07/20 10:47:12;;;;;;;8.70;5.28;;;;;;;38.81;24.34;98577.72;5013558;28;20170;-92
2023/07/20 10:50:14;;;;;;;7.18;5.55;;;;;;;38.23;23.79;98579.81;4994564;28;20022;-93
2023/07/20 10:52:42;;;;;;;9.90;5.32;;;;;;;37.96;23.66;98585.44;4975020;28;20097;-93
2023/07/20 10:55:15;;;;;;;11.30;6.13;;;;;;;37.90;24.96;98577.53;4989417;28;20034;-93
2023/07/20 10:57:40;;;;;;;12.15;6.40;;;;;;;38.34;25.16;98580.47;4995701;28;20034;-92
2023/07/20 11:00:14;;;;;;;10.35;5.63;;;;;;;38.59;23.24;98574.59;5000610;28;20408;-92
2023/07/20 11:02:49;;;;;;;7.10;5.05;;;;;;;38.94;24.22;98566.09;5031361;28;20042;-91
2023/07/20 11:05:38;;;;;;;8.98;4.80;;;;;;;39.19;23.27;98583.50;5031673;28;20033;-91
2023/07/20 11:08:24;;;;;;;8.52;5.57;;;;;;;39.25;22.60;98566.66;5015647;28;20026;-91
2023/07/20 11:11:23;;;;;;;9.27;4.85;;;;;;;39.12;22.80;98569.56;4993316;28;20398;-92
2023/07/20 11:14:00;;;;;;;11.07;5.50;;;;;;;39.27;22.95;98563.97;4995034;28;20121;-91
2023/07/20 11:16:46;;;;;;;17.27;6.00;;;;;;;39.71;23.06;98554.94;4994505;28;20038;-91
2023/07/20 11:19:26;;;;;;;9.48;5.05;;;;;;;39.85;22.57;98563.75;4998111;28;20026;-91
2023/07/20 11:21:57;;;;;;;7.57;5.15;;;;;;;39.30;21.81;98562.84;4995225;28;20117;-92
2023/07/20 11:24:23;;;;;;;12.02;5.53;;;;;;;39.24;22.44;98559.25;5004408;28;20036;-91
2023/07/20 11:26:51;;;;;;;10.18;5.22;;;;;;;38.27;23.37;98556.97;5014213;28;20087;-90
2023/07/20 11:29:18;;;;;;;8.38;5.03;;;;;;;38.30;22.95;98536.19;5029717;28;20117;-91
2023/07/20 11:31:45;;;;;;;9.50;5.22;;;;;;;38.64;23.21;98551.69;5014562;28;20030;-91